createdAt,value
2022-11-29T00:00:38.087Z,138.45
2022-11-29T00:03:05.561Z,143.23
2022-11-29T00:05:35.137Z,178.02
2022-11-29T00:08:05.237Z,171.57
2022-11-29T00:10:32.554Z,167.80
2022-11-29T00:13:01.931Z,145.63
2022-11-29T00:15:29.296Z,149.55
2022-11-29T00:17:56.580Z,141.20
2022-11-29T00:20:23.965Z,246.25
2022-11-29T00:22:51.248Z,212.20
2022-11-29T00:25:18.621Z,133.27
2022-11-29T00:27:45.951Z,165.15
2022-11-29T00:30:13.587Z,152.75
2022-11-29T00:32:40.876Z,124.70
2022-11-29T00:35:09.861Z,149.30
2022-11-29T00:37:37.382Z,159.55
2022-11-29T00:40:05.445Z,134.02
2022-11-29T00:42:32.953Z,147.55
2022-11-29T00:45:00.244Z,168.90
2022-11-29T00:47:27.634Z,159.05
2022-11-29T00:49:54.954Z,182.90
2022-11-29T00:52:23.049Z,169.52
2022-11-29T00:54:50.284Z,183.30
2022-11-29T00:57:17.647Z,150.90
2022-11-29T00:59:45.001Z,196.25
2022-11-29T01:02:12.322Z,135.75
2022-11-29T01:04:39.661Z,180.63
2022-11-29T01:07:06.917Z,157.30
2022-11-29T01:09:34.300Z,157.05
2022-11-29T01:12:01.616Z,160.48
2022-11-29T01:14:28.910Z,163.10
2022-11-29T01:16:59.428Z,147.70
2022-11-29T01:19:26.791Z,165.25
2022-11-29T01:21:54.297Z,205.35
2022-11-29T01:24:22.409Z,158.32
2022-11-29T01:26:49.744Z,178.82
2022-11-29T01:29:16.994Z,155.18
2022-11-29T01:31:44.242Z,174.50
2022-11-29T01:34:13.939Z,149.55
2022-11-29T01:36:41.194Z,143.90
2022-11-29T01:39:08.543Z,138.95
2022-11-29T01:41:37.653Z,141.20
2022-11-29T01:44:17.179Z,196.30
2022-11-29T01:46:45.661Z,143.73
2022-11-29T01:49:24.780Z,138.32
2022-11-29T01:51:53.703Z,143.68
2022-11-29T01:54:21.131Z,183.50
2022-11-29T01:56:49.269Z,149.00
2022-11-29T01:59:17.862Z,161.68
2022-11-29T02:01:45.221Z,158.07
2022-11-29T02:04:15.701Z,147.63
2022-11-29T02:06:43.331Z,150.43
2022-11-29T02:09:18.669Z,135.13
2022-11-29T02:12:04.816Z,150.23
2022-11-29T02:14:38.188Z,159.88
2022-11-29T02:17:15.961Z,156.98
2022-11-29T02:19:58.225Z,160.57
2022-11-29T02:22:29.694Z,141.85
2022-11-29T02:25:09.127Z,179.10
2022-11-29T02:27:56.692Z,141.80
2022-11-29T02:30:33.127Z,174.00
2022-11-29T02:33:06.705Z,154.45
2022-11-29T02:35:39.973Z,145.57
2022-11-29T02:38:25.737Z,164.77
2022-11-29T02:41:12.737Z,152.18
2022-11-29T02:43:58.658Z,184.55
2022-11-29T02:46:26.099Z,169.52
2022-11-29T02:49:01.739Z,148.65
2022-11-29T02:51:29.097Z,163.10
2022-11-29T02:53:59.132Z,172.65
2022-11-29T02:56:38.564Z,180.40
2022-11-29T02:59:05.815Z,172.82
2022-11-29T03:01:33.108Z,180.00
2022-11-29T03:04:09.796Z,196.63
2022-11-29T03:06:44.014Z,175.15
2022-11-29T03:09:33.322Z,208.68
2022-11-29T03:12:19.441Z,175.10
2022-11-29T03:15:01.951Z,205.07
2022-11-29T03:17:47.764Z,218.25
2022-11-29T03:20:27.088Z,233.55
2022-11-29T03:23:00.498Z,243.50
2022-11-29T03:25:36.395Z,216.85
2022-11-29T03:28:25.159Z,220.00
2022-11-29T03:31:15.665Z,169.30
2022-11-29T03:34:01.734Z,268.73
2022-11-29T03:36:29.075Z,211.73
2022-11-29T03:38:59.108Z,243.50
2022-11-29T03:41:29.360Z,217.48
2022-11-29T03:44:08.719Z,223.38
2022-11-29T03:46:39.238Z,224.13
2022-11-29T03:49:32.836Z,214.38
2022-11-29T03:52:16.199Z,223.18
2022-11-29T03:54:43.689Z,202.93
2022-11-29T03:57:11.840Z,215.00
2022-11-29T03:59:52.832Z,243.93
2022-11-29T04:02:35.424Z,212.77
2022-11-29T04:05:21.571Z,255.43
2022-11-29T04:07:51.919Z,251.90
2022-11-29T04:10:42.702Z,265.75
2022-11-29T04:13:25.401Z,255.05
2022-11-29T04:16:11.274Z,219.75
2022-11-29T04:18:56.441Z,240.43
2022-11-29T04:21:38.837Z,219.02
2022-11-29T04:24:24.652Z,256.80
2022-11-29T04:27:14.987Z,198.52
2022-11-29T04:29:45.334Z,212.65
2022-11-29T04:32:15.473Z,186.77
2022-11-29T04:35:00.876Z,252.38
2022-11-29T04:37:46.841Z,228.50
2022-11-29T04:40:26.649Z,193.73
2022-11-29T04:43:12.922Z,238.60
2022-11-29T04:45:45.471Z,218.55
2022-11-29T04:48:21.704Z,222.95
2022-11-29T04:50:54.883Z,265.60
2022-11-29T04:53:29.666Z,216.25
2022-11-29T04:56:07.799Z,225.10
2022-11-29T04:58:35.132Z,210.95
2022-11-29T05:01:05.311Z,242.73
2022-11-29T05:03:36.279Z,267.60
2022-11-29T05:06:15.723Z,216.93
2022-11-29T05:08:48.845Z,243.48
2022-11-29T05:11:16.125Z,249.30
2022-11-29T05:13:43.364Z,267.23
2022-11-29T05:16:24.102Z,237.80
2022-11-29T05:19:12.348Z,213.85
2022-11-29T05:21:51.995Z,226.20
2022-11-29T05:24:28.329Z,229.07
2022-11-29T05:27:09.904Z,232.80
2022-11-29T05:29:37.164Z,236.60
2022-11-29T05:32:16.405Z,241.50
2022-11-29T05:35:09.957Z,252.38
2022-11-29T05:38:06.247Z,263.20
2022-11-29T05:40:52.055Z,238.95
2022-11-29T05:43:25.544Z,254.82
2022-11-29T05:46:01.924Z,241.65
2022-11-29T05:48:35.478Z,237.07
2022-11-29T05:51:06.347Z,253.82
2022-11-29T05:53:36.421Z,249.95
2022-11-29T05:56:07.814Z,246.63
2022-11-29T05:58:40.915Z,236.35
2022-11-29T06:01:08.302Z,260.75
2022-11-29T06:03:35.643Z,238.30
2022-11-29T06:06:11.485Z,260.42
2022-11-29T06:08:41.805Z,233.68
2022-11-29T06:11:16.660Z,229.07
2022-11-29T06:14:05.648Z,243.02
2022-11-29T06:16:43.776Z,237.75
2022-11-29T06:19:30.241Z,246.57
2022-11-29T06:21:59.481Z,236.35
2022-11-29T06:24:38.400Z,226.63
2022-11-29T06:27:14.910Z,237.68
2022-11-29T06:30:06.965Z,241.27
2022-11-29T06:32:34.381Z,206.60
2022-11-29T06:35:24.014Z,229.75
2022-11-29T06:37:53.176Z,209.77
2022-11-29T06:40:20.613Z,203.40
2022-11-29T06:42:49.008Z,209.98
2022-11-29T06:45:16.738Z,209.55
2022-11-29T06:47:50.585Z,189.77
2022-11-29T06:50:17.963Z,181.50
2022-11-29T06:52:54.674Z,190.07
2022-11-29T06:55:42.286Z,173.82
2022-11-29T06:58:09.630Z,185.25
2022-11-29T07:00:36.911Z,173.90
2022-11-29T07:03:13.358Z,190.77
2022-11-29T07:05:41.091Z,189.00
2022-11-29T07:08:14.657Z,181.82
2022-11-29T07:10:42.486Z,182.77
2022-11-29T07:13:11.807Z,189.20
2022-11-29T07:15:39.744Z,191.10
2022-11-29T07:18:10.109Z,198.13
2022-11-29T07:20:55.921Z,191.52
2022-11-29T07:23:26.318Z,181.80
2022-11-29T07:25:56.637Z,166.65
2022-11-29T07:28:46.812Z,163.45
2022-11-29T07:31:17.189Z,173.80
2022-11-29T07:33:47.689Z,144.90
2022-11-29T07:36:18.045Z,163.73
2022-11-29T07:38:57.559Z,332.33
2022-11-29T07:41:45.156Z,172.27
2022-11-29T07:44:24.887Z,161.68
2022-11-29T07:46:52.365Z,152.82
2022-11-29T07:49:19.761Z,225.77
2022-11-29T07:51:47.088Z,283.90
2022-11-29T07:54:20.095Z,280.63
2022-11-29T07:56:47.445Z,168.95
2022-11-29T07:59:14.907Z,158.95
2022-11-29T08:01:42.615Z,151.40
2022-11-29T08:04:10.064Z,159.20
2022-11-29T08:06:37.700Z,154.40
2022-11-29T08:09:06.864Z,164.40
2022-11-29T08:11:34.161Z,144.13
2022-11-29T08:14:02.986Z,149.60
2022-11-29T08:16:30.487Z,137.85
2022-11-29T08:18:57.961Z,136.82
2022-11-29T08:21:25.349Z,149.48
2022-11-29T08:23:52.665Z,130.75
2022-11-29T08:26:20.497Z,136.93
2022-11-29T08:28:52.025Z,128.27
2022-11-29T08:31:19.857Z,129.77
2022-11-29T08:33:47.566Z,128.13
2022-11-29T08:36:16.992Z,119.78
2022-11-29T08:38:44.694Z,117.55
2022-11-29T08:41:13.062Z,111.35
2022-11-29T08:43:40.459Z,108.28
2022-11-29T08:46:09.134Z,120.13
2022-11-29T08:48:38.735Z,115.00
2022-11-29T08:51:06.950Z,210.18
2022-11-29T08:53:43.513Z,126.90
2022-11-29T08:59:03.286Z,96.43
2022-11-29T09:01:30.637Z,100.72
2022-11-29T09:04:05.146Z,95.97
2022-11-29T09:06:33.759Z,90.43
2022-11-29T09:09:01.713Z,100.10
2022-11-29T09:11:29.734Z,96.35
2022-11-29T09:13:58.737Z,88.32
2022-11-29T09:16:28.044Z,93.25
2022-11-29T09:18:56.012Z,95.80
2022-11-29T09:21:25.010Z,86.75
2022-11-29T09:23:58.652Z,82.15
2022-11-29T09:26:31.264Z,90.22
2022-11-29T09:29:05.809Z,90.07
2022-11-29T09:31:33.558Z,137.55
2022-11-29T09:34:00.896Z,149.65
2022-11-29T09:36:29.864Z,85.28
2022-11-29T09:38:57.950Z,78.40
2022-11-29T09:41:31.287Z,81.10
2022-11-29T09:44:05.479Z,76.18
2022-11-29T09:46:32.736Z,81.55
2022-11-29T09:49:08.279Z,77.32
2022-11-29T09:51:53.141Z,83.63
2022-11-29T09:54:20.422Z,91.50
2022-11-29T09:56:50.160Z,80.60
2022-11-29T09:59:22.876Z,86.97
2022-11-29T10:01:58.246Z,85.97
2022-11-29T10:04:31.770Z,97.30
2022-11-29T10:07:05.518Z,96.90
2022-11-29T10:09:34.456Z,109.28
2022-11-29T10:12:07.807Z,301.13
2022-11-29T10:15:10.671Z,113.03
2022-11-29T10:17:40.137Z,107.10
2022-11-29T10:20:11.989Z,102.43
2022-11-29T10:22:43.578Z,101.60
2022-11-29T10:27:40.959Z,100.95
2022-11-29T10:30:14.130Z,97.90
2022-11-29T10:32:42.064Z,100.45
2022-11-29T10:35:13.849Z,97.55
2022-11-29T10:37:41.729Z,98.38
2022-11-29T10:40:14.673Z,96.18
2022-11-29T10:42:54.641Z,96.35
2022-11-29T10:45:41.678Z,99.20
2022-11-29T10:48:12.400Z,89.07
2022-11-29T10:50:42.817Z,93.85
2022-11-29T10:53:16.133Z,90.20
2022-11-29T10:55:49.512Z,91.25
2022-11-29T10:58:27.920Z,92.85
2022-11-29T11:01:06.779Z,84.28
2022-11-29T11:03:41.673Z,83.45
2022-11-29T11:06:09.093Z,81.88
2022-11-29T11:08:37.358Z,91.90
2022-11-29T11:11:05.714Z,84.47
2022-11-29T11:13:33.363Z,85.15
2022-11-29T11:16:12.265Z,94.05
2022-11-29T11:18:39.804Z,96.22
2022-11-29T11:21:10.144Z,74.22
2022-11-29T11:23:42.943Z,98.30
2022-11-29T11:26:12.221Z,122.10
2022-11-29T11:28:43.038Z,129.82
2022-11-29T11:31:11.731Z,140.03
2022-11-29T11:33:40.615Z,137.68
2022-11-29T11:36:11.026Z,144.27
2022-11-29T11:38:39.880Z,140.70
2022-11-29T11:41:45.697Z,122.43
2022-11-29T11:44:45.813Z,157.90
2022-11-29T11:47:15.513Z,134.75
2022-11-29T11:49:52.057Z,126.82
2022-11-29T11:52:26.768Z,115.03
2022-11-29T11:54:55.549Z,121.32
2022-11-29T11:57:23.444Z,113.97
2022-11-29T11:59:51.761Z,120.05
2022-11-29T12:02:29.594Z,104.45
2022-11-29T12:04:59.567Z,107.82
2022-11-29T12:08:06.213Z,115.28
2022-11-29T12:10:23.527Z,118.72
2022-11-29T12:12:51.144Z,95.72
2022-11-29T12:15:20.836Z,108.28
2022-11-29T12:18:02.009Z,101.93
2022-11-29T12:20:33.750Z,425.00
2022-11-29T12:23:06.918Z,116.22
2022-11-29T12:25:40.159Z,119.07
2022-11-29T12:28:15.840Z,105.97
2022-11-29T12:30:56.166Z,115.63
2022-11-29T12:33:26.600Z,103.60
2022-11-29T12:36:26.094Z,101.78
2022-11-29T12:38:53.418Z,126.30
2022-11-29T12:41:33.061Z,99.75
2022-11-29T12:44:08.614Z,97.90
2022-11-29T12:46:38.175Z,111.00
2022-11-29T12:49:16.616Z,88.38
2022-11-29T12:51:46.996Z,96.95
2022-11-29T12:54:23.712Z,88.45
2022-11-29T12:56:58.103Z,88.22
2022-11-29T12:59:44.145Z,76.25
2022-11-29T13:02:33.470Z,70.65
2022-11-29T13:05:16.233Z,73.78
2022-11-29T13:07:52.032Z,70.07
2022-11-29T13:10:51.704Z,67.90
2022-11-29T13:13:21.846Z,67.47
2022-11-29T13:15:58.339Z,67.25
2022-11-29T13:18:34.343Z,66.00
2022-11-29T13:21:16.130Z,60.95
2022-11-29T13:26:30.969Z,57.00
2022-11-29T13:28:58.799Z,51.67
2022-11-29T13:31:26.440Z,62.22
2022-11-29T13:34:04.372Z,49.55
2022-11-29T13:36:43.952Z,53.20
2022-11-29T13:39:14.240Z,49.92
2022-11-29T13:41:51.838Z,45.75
2022-11-29T13:44:38.253Z,45.30
2022-11-29T13:47:16.492Z,44.45
2022-11-29T13:49:49.789Z,45.67
2022-11-29T13:52:29.338Z,47.55
2022-11-29T13:55:05.953Z,40.38
2022-11-29T13:58:15.391Z,47.28
2022-11-29T14:00:39.935Z,48.17
2022-11-29T14:03:22.316Z,43.42
2022-11-29T14:05:53.810Z,47.85
2022-11-29T14:08:48.045Z,46.03
2022-11-29T14:11:29.920Z,44.45
2022-11-29T14:14:04.193Z,45.00
2022-11-29T14:16:34.236Z,49.10
2022-11-29T14:19:21.223Z,54.75
2022-11-29T14:21:57.534Z,40.53
2022-11-29T14:24:36.605Z,50.70
2022-11-29T14:27:06.781Z,54.50
2022-11-29T14:29:55.481Z,55.20
2022-11-29T14:32:29.111Z,59.85
2022-11-29T14:35:05.616Z,65.20
2022-11-29T14:37:43.960Z,53.75
2022-11-29T14:40:21.726Z,60.03
2022-11-29T14:42:49.330Z,55.17
2022-11-29T14:45:27.422Z,56.65
2022-11-29T14:47:55.049Z,60.47
2022-11-29T14:50:34.747Z,62.22
2022-11-29T14:53:02.601Z,49.08
2022-11-29T14:55:31.603Z,55.03
2022-11-29T14:58:02.156Z,51.95
2022-11-29T15:00:30.916Z,56.80
2022-11-29T15:02:58.196Z,49.80
2022-11-29T15:05:40.746Z,52.63
2022-11-29T15:08:14.134Z,50.28
2022-11-29T15:10:43.103Z,52.65
2022-11-29T15:13:12.868Z,55.50
2022-11-29T15:16:00.920Z,60.67
2022-11-29T15:18:34.628Z,56.30
2022-11-29T15:21:10.991Z,55.88
2022-11-29T15:23:42.724Z,61.03
2022-11-29T15:26:21.034Z,56.88
2022-11-29T15:28:48.852Z,57.40
2022-11-29T15:31:19.702Z,56.28
2022-11-29T15:33:48.008Z,54.63
2022-11-29T15:36:20.083Z,62.28
2022-11-29T15:38:48.762Z,61.95
2022-11-29T15:41:20.343Z,57.72
2022-11-29T15:46:23.054Z,65.50
2022-11-29T15:48:50.488Z,70.20
2022-11-29T15:51:36.052Z,71.30
2022-11-29T15:54:14.944Z,74.63
2022-11-29T15:57:02.532Z,64.55
2022-11-29T15:59:33.852Z,72.22
2022-11-29T16:02:03.280Z,84.43
2022-11-29T16:04:31.854Z,171.48
2022-11-29T16:06:59.216Z,93.65
2022-11-29T16:09:46.781Z,92.78
2022-11-29T16:12:15.656Z,88.85
2022-11-29T16:14:54.021Z,92.88
2022-11-29T16:17:21.712Z,97.20
2022-11-29T16:19:49.106Z,100.07
2022-11-29T16:22:18.361Z,98.90
2022-11-29T16:25:08.664Z,98.90
2022-11-29T16:27:36.873Z,94.55
2022-11-29T16:30:04.594Z,97.50
2022-11-29T16:32:33.494Z,100.55
2022-11-29T16:35:09.551Z,104.20
2022-11-29T16:37:41.274Z,112.05
2022-11-29T16:40:20.607Z,110.43
2022-11-29T16:43:06.561Z,111.55
2022-11-29T16:45:38.142Z,116.60
2022-11-29T16:50:33.398Z,118.40
2022-11-29T16:53:19.238Z,118.38
2022-11-29T16:55:46.549Z,104.20
2022-11-29T16:58:13.907Z,114.15
2022-11-29T17:00:41.261Z,106.40
2022-11-29T17:03:09.726Z,119.05
2022-11-29T17:05:41.621Z,120.35
2022-11-29T17:08:12.411Z,112.53
2022-11-29T17:10:39.785Z,116.35
2022-11-29T17:13:11.257Z,113.57
2022-11-29T17:15:38.663Z,129.55
2022-11-29T17:18:06.037Z,119.53
2022-11-29T17:20:33.978Z,126.75
2022-11-29T17:23:01.454Z,126.57
2022-11-29T17:25:28.808Z,123.20
2022-11-29T17:27:57.987Z,137.43
2022-11-29T17:30:25.877Z,137.35
2022-11-29T17:32:53.260Z,132.60
2022-11-29T17:35:20.584Z,133.95
2022-11-29T17:37:47.880Z,122.45
2022-11-29T17:40:15.443Z,127.20
2022-11-29T17:42:42.769Z,127.97
2022-11-29T17:45:10.243Z,112.85
2022-11-29T17:47:37.750Z,120.10
2022-11-29T17:50:05.348Z,129.05
2022-11-29T17:52:32.612Z,125.18
2022-11-29T17:54:59.939Z,123.97
2022-11-29T17:57:27.210Z,127.35
2022-11-29T17:59:54.484Z,173.98
2022-11-29T18:02:21.848Z,119.97
2022-11-29T18:04:49.150Z,109.85
2022-11-29T18:07:17.313Z,117.28
2022-11-29T18:09:44.980Z,120.70
2022-11-29T18:12:12.479Z,121.55
2022-11-29T18:14:41.283Z,116.97
2022-11-29T18:17:08.692Z,114.22
2022-11-29T18:19:35.968Z,117.20
2022-11-29T18:22:03.300Z,121.75
2022-11-29T18:24:30.592Z,119.07
2022-11-29T18:26:57.861Z,115.25
2022-11-29T18:29:25.201Z,116.05
2022-11-29T18:31:53.320Z,120.15
2022-11-29T18:34:23.700Z,118.13
2022-11-29T18:36:51.094Z,112.32
2022-11-29T18:39:19.803Z,109.55
2022-11-29T18:41:48.433Z,114.72
2022-11-29T18:44:16.399Z,122.22
2022-11-29T18:46:44.857Z,112.63
2022-11-29T18:49:13.638Z,118.10
2022-11-29T18:51:42.992Z,126.20
2022-11-29T18:54:10.436Z,123.60
2022-11-29T18:56:38.677Z,125.32
2022-11-29T18:59:14.782Z,118.25
2022-11-29T19:01:42.862Z,134.82
2022-11-29T19:04:12.087Z,125.07
2022-11-29T19:06:40.324Z,134.60
2022-11-29T19:09:09.893Z,119.88
2022-11-29T19:11:37.326Z,131.30
2022-11-29T19:14:05.982Z,133.20
2022-11-29T19:16:34.270Z,137.60
2022-11-29T19:19:02.278Z,139.90
2022-11-29T19:21:31.791Z,198.00
2022-11-29T19:24:00.115Z,135.75
2022-11-29T19:26:28.192Z,142.98
2022-11-29T19:28:55.541Z,136.10
2022-11-29T19:31:27.264Z,136.10
2022-11-29T19:33:55.369Z,133.88
2022-11-29T19:36:27.310Z,145.57
2022-11-29T19:38:55.094Z,131.63
2022-11-29T19:41:23.954Z,146.80
2022-11-29T19:43:51.656Z,187.32
2022-11-29T19:46:20.462Z,144.02
2022-11-29T19:48:47.990Z,129.88
2022-11-29T19:51:19.154Z,132.45
2022-11-29T19:53:47.694Z,145.52
2022-11-29T19:56:16.549Z,141.80
2022-11-29T19:58:44.487Z,135.70
2022-11-29T20:01:13.092Z,145.65
2022-11-29T20:03:40.703Z,141.80
2022-11-29T20:06:09.207Z,145.38
2022-11-29T20:08:36.906Z,143.75
2022-11-29T20:11:07.322Z,157.45
2022-11-29T20:13:34.715Z,145.77
2022-11-29T20:16:03.123Z,146.02
2022-11-29T20:18:31.750Z,142.70
2022-11-29T20:21:03.595Z,140.70
2022-11-29T20:23:30.976Z,134.80
2022-11-29T20:25:58.391Z,144.00
2022-11-29T20:28:25.830Z,138.88
2022-11-29T20:30:54.511Z,138.10
2022-11-29T20:33:25.939Z,129.63
2022-11-29T20:36:16.655Z,141.38
2022-11-29T20:39:01.083Z,130.50
2022-11-29T20:41:34.381Z,142.82
2022-11-29T20:44:03.455Z,147.90
2022-11-29T20:46:31.305Z,138.43
2022-11-29T20:49:04.728Z,139.05
2022-11-29T20:51:38.787Z,142.35
2022-11-29T20:54:06.296Z,136.23
2022-11-29T20:56:33.702Z,140.02
2022-11-29T20:59:01.009Z,145.43
2022-11-29T21:01:28.465Z,176.70
2022-11-29T21:03:55.929Z,140.48
2022-11-29T21:06:23.346Z,128.10
2022-11-29T21:08:51.893Z,137.07
2022-11-29T21:11:19.395Z,143.35
2022-11-29T21:13:48.070Z,142.15
2022-11-29T21:16:15.817Z,138.57
2022-11-29T21:18:43.494Z,131.43
2022-11-29T21:21:17.020Z,126.47
2022-11-29T21:23:49.156Z,130.23
2022-11-29T21:26:21.040Z,132.25
2022-11-29T21:29:03.478Z,134.63
2022-11-29T21:31:31.040Z,129.00
2022-11-29T21:33:58.594Z,126.30
2022-11-29T21:36:25.966Z,129.30
2022-11-29T21:38:55.306Z,131.45
2022-11-29T21:41:23.283Z,129.85
2022-11-29T21:44:06.135Z,137.05
2022-11-29T21:46:34.605Z,142.20
2022-11-29T21:49:02.137Z,133.90
2022-11-29T21:51:29.532Z,144.70
2022-11-29T21:53:56.958Z,134.45
2022-11-29T21:56:24.412Z,132.82
2022-11-29T21:58:51.682Z,129.30
2022-11-29T22:01:20.180Z,126.80
2022-11-29T22:03:48.170Z,131.10
2022-11-29T22:06:20.499Z,133.88
2022-11-29T22:08:48.888Z,128.85
2022-11-29T22:11:30.666Z,122.72
2022-11-29T22:14:13.952Z,138.30
2022-11-29T22:16:44.224Z,132.52
2022-11-29T22:19:13.777Z,129.23
2022-11-29T22:21:45.436Z,188.43
2022-11-29T22:26:40.760Z,127.78
2022-11-29T22:29:08.291Z,136.73
2022-11-29T22:31:36.406Z,125.15
2022-11-29T22:34:03.840Z,132.95
2022-11-29T22:36:31.234Z,126.43
2022-11-29T22:38:59.007Z,118.35
2022-11-29T22:41:26.417Z,128.00
2022-11-29T22:43:53.919Z,128.50
2022-11-29T22:46:22.900Z,127.68
2022-11-29T22:48:52.477Z,129.70
2022-11-29T22:51:24.663Z,130.23
2022-11-29T22:53:53.166Z,122.15
2022-11-29T22:56:20.887Z,131.13
2022-11-29T22:58:48.232Z,130.77
2022-11-29T23:01:16.607Z,129.88
2022-11-29T23:03:45.336Z,131.50
2022-11-29T23:06:17.014Z,123.63
2022-11-29T23:08:45.579Z,126.72
2022-11-29T23:11:14.240Z,126.25
2022-11-29T23:13:42.752Z,118.78
2022-11-29T23:16:12.355Z,127.57
2022-11-29T23:18:40.171Z,129.68
2022-11-29T23:21:09.300Z,133.93
2022-11-29T23:23:37.108Z,122.53
2022-11-29T23:26:05.314Z,124.53
2022-11-29T23:28:33.752Z,123.03
2022-11-29T23:31:01.240Z,126.65
2022-11-29T23:33:29.034Z,123.85
2022-11-29T23:36:03.172Z,128.68
2022-11-29T23:38:30.507Z,128.63
2022-11-29T23:40:57.888Z,133.95
2022-11-29T23:43:25.266Z,124.00
2022-11-29T23:45:52.561Z,129.63
2022-11-29T23:48:19.976Z,127.47
2022-11-29T23:50:47.274Z,133.80
2022-11-29T23:53:15.836Z,125.80
2022-11-29T23:55:43.517Z,127.38
2022-11-29T23:58:11.605Z,119.82
